sensor_id;sensor_type;location;lat;lon;timestamp;pressure;altitude;pressure_sealevel;temperature;humidity
15229;BME280;7717;47.792;12.076;2023-04-21T00:00:43;95816.22;;;6.83;100.00
15229;BME280;7717;47.792;12.076;2023-04-21T00:03:08;95808.59;;;6.87;100.00
15229;BME280;7717;47.792;12.076;2023-04-21T00:05:34;95813.69;;;6.83;100.00
15229;BME280;7717;47.792;12.076;2023-04-21T00:07:59;95821.31;;;6.85;100.00
15229;BME280;7717;47.792;12.076;2023-04-21T00:10:24;95822.13;;;6.76;100.00
15229;BME280;7717;47.792;12.076;2023-04-21T00:12:50;95816.19;;;6.77;100.00
15229;BME280;7717;47.792;12.076;2023-04-21T00:15:15;95821.28;;;6.73;100.00
15229;BME280;7717;47.792;12.076;2023-04-21T00:17:40;95793.22;;;6.57;100.00
15229;BME280;7717;47.792;12.076;2023-04-21T00:20:06;95805.16;;;6.69;100.00
15229;BME280;7717;47.792;12.076;2023-04-21T00:22:34;95809.34;;;6.62;100.00
15229;BME280;7717;47.792;12.076;2023-04-21T00:25:00;95802.56;;;6.57;100.00
15229;BME280;7717;47.792;12.076;2023-04-21T00:27:25;95805.09;;;6.57;100.00
15229;BME280;7717;47.792;12.076;2023-04-21T00:29:50;95810.13;;;6.47;100.00
15229;BME280;7717;47.792;12.076;2023-04-21T00:32:16;95800.78;;;6.46;100.00
15229;BME280;7717;47.792;12.076;2023-04-21T00:34:41;95814.38;;;6.47;100.00
15229;BME280;7717;47.792;12.076;2023-04-21T00:37:06;95808.41;;;6.43;100.00
15229;BME280;7717;47.792;12.076;2023-04-21T00:39:32;95807.53;;;6.37;100.00
15229;BME280;7717;47.792;12.076;2023-04-21T00:41:57;95816.91;;;6.45;100.00
15229;BME280;7717;47.792;12.076;2023-04-21T00:44:22;95809.28;;;6.42;100.00
15229;BME280;7717;47.792;12.076;2023-04-21T00:46:48;95811.81;;;6.48;100.00
15229;BME280;7717;47.792;12.076;2023-04-21T00:49:13;95802.53;;;6.54;100.00
15229;BME280;7717;47.792;12.076;2023-04-21T00:51:39;95800.00;;;6.55;100.00
15229;BME280;7717;47.792;12.076;2023-04-21T00:54:06;95801.69;;;6.56;100.00
15229;BME280;7717;47.792;12.076;2023-04-21T00:56:35;95793.22;;;6.56;100.00
15229;BME280;7717;47.792;12.076;2023-04-21T00:59:00;95793.19;;;6.51;100.00
15229;BME280;7717;47.792;12.076;2023-04-21T01:01:30;95791.50;;;6.47;100.00
15229;BME280;7717;47.792;12.076;2023-04-21T01:04:00;95797.47;;;6.55;100.00
15229;BME280;7717;47.792;12.076;2023-04-21T01:06:30;95792.34;;;6.47;100.00
15229;BME280;7717;47.792;12.076;2023-04-21T01:08:59;95787.28;;;6.52;100.00
15229;BME280;7717;47.792;12.076;2023-04-21T01:11:24;95777.91;;;6.43;100.00
15229;BME280;7717;47.792;12.076;2023-04-21T01:13:53;95787.22;;;6.41;100.00
15229;BME280;7717;47.792;12.076;2023-04-21T01:16:19;95790.59;;;6.43;100.00
15229;BME280;7717;47.792;12.076;2023-04-21T01:18:46;95777.84;;;6.36;100.00
15229;BME280;7717;47.792;12.076;2023-04-21T01:21:11;95785.56;;;6.49;100.00
15229;BME280;7717;47.792;12.076;2023-04-21T01:23:39;95783.81;;;6.39;100.00
15229;BME280;7717;47.792;12.076;2023-04-21T01:26:04;95781.28;;;6.38;100.00
15229;BME280;7717;47.792;12.076;2023-04-21T01:28:30;95783.00;;;6.46;100.00
15229;BME280;7717;47.792;12.076;2023-04-21T01:30:55;95779.66;;;6.54;100.00
15229;BME280;7717;47.792;12.076;2023-04-21T01:33:21;95786.44;;;6.61;100.00
15229;BME280;7717;47.792;12.076;2023-04-21T01:35:46;95783.94;;;6.72;100.00
15229;BME280;7717;47.792;12.076;2023-04-21T01:38:12;95789.91;;;6.75;100.00
15229;BME280;7717;47.792;12.076;2023-04-21T01:40:38;95783.13;;;6.74;100.00
15229;BME280;7717;47.792;12.076;2023-04-21T01:43:06;95777.19;;;6.71;100.00
15229;BME280;7717;47.792;12.076;2023-04-21T01:45:31;95775.47;;;6.66;100.00
15229;BME280;7717;47.792;12.076;2023-04-21T01:47:57;95785.63;;;6.66;100.00
15229;BME280;7717;47.792;12.076;2023-04-21T01:50:22;95783.06;;;6.62;100.00
15229;BME280;7717;47.792;12.076;2023-04-21T01:52:47;95772.84;;;6.53;100.00
15229;BME280;7717;47.792;12.076;2023-04-21T01:55:13;95779.69;;;6.64;100.00
15229;BME280;7717;47.792;12.076;2023-04-21T01:57:39;95781.41;;;6.72;100.00
15229;BME280;7717;47.792;12.076;2023-04-21T02:00:05;95783.97;;;6.75;100.00
15229;BME280;7717;47.792;12.076;2023-04-21T02:02:31;95782.28;;;6.77;100.00
15229;BME280;7717;47.792;12.076;2023-04-21T02:04:56;95769.53;;;6.63;100.00
15229;BME280;7717;47.792;12.076;2023-04-21T02:07:22;95780.56;;;6.73;100.00
15229;BME280;7717;47.792;12.076;2023-04-21T02:09:47;95789.00;;;6.64;100.00
15229;BME280;7717;47.792;12.076;2023-04-21T02:12:12;95805.97;;;6.65;100.00
15229;BME280;7717;47.792;12.076;2023-04-21T02:14:38;95800.91;;;6.70;100.00
15229;BME280;7717;47.792;12.076;2023-04-21T02:17:03;95797.50;;;6.63;100.00
15229;BME280;7717;47.792;12.076;2023-04-21T02:19:29;95796.69;;;6.81;100.00
15229;BME280;7717;47.792;12.076;2023-04-21T02:21:55;95790.78;;;6.82;100.00
15229;BME280;7717;47.792;12.076;2023-04-21T02:24:21;95789.06;;;6.78;100.00
15229;BME280;7717;47.792;12.076;2023-04-21T02:26:46;95789.09;;;6.89;100.00
15229;BME280;7717;47.792;12.076;2023-04-21T02:29:12;95793.38;;;6.93;100.00
15229;BME280;7717;47.792;12.076;2023-04-21T02:31:37;95785.69;;;6.83;100.00
15229;BME280;7717;47.792;12.076;2023-04-21T02:34:03;95789.91;;;6.74;100.00
15229;BME280;7717;47.792;12.076;2023-04-21T02:36:28;95784.84;;;6.91;100.00
15229;BME280;7717;47.792;12.076;2023-04-21T02:38:54;95782.34;;;6.86;100.00
15229;BME280;7717;47.792;12.076;2023-04-21T02:41:20;95777.22;;;6.83;100.00
15229;BME280;7717;47.792;12.076;2023-04-21T02:43:45;95777.22;;;6.92;100.00
15229;BME280;7717;47.792;12.076;2023-04-21T02:46:10;95784.84;;;6.91;100.00
15229;BME280;7717;47.792;12.076;2023-04-21T02:48:36;95791.69;;;7.01;100.00
15229;BME280;7717;47.792;12.076;2023-04-21T02:51:02;95791.69;;;7.04;100.00
15229;BME280;7717;47.792;12.076;2023-04-21T02:53:28;95784.06;;;7.07;100.00
15229;BME280;7717;47.792;12.076;2023-04-21T02:55:53;95780.69;;;7.03;100.00
15229;BME280;7717;47.792;12.076;2023-04-21T02:58:19;95782.34;;;7.00;100.00
15229;BME280;7717;47.792;12.076;2023-04-21T03:00:45;95773.84;;;6.90;100.00
15229;BME280;7717;47.792;12.076;2023-04-21T03:03:10;95778.06;;;6.82;100.00
15229;BME280;7717;47.792;12.076;2023-04-21T03:05:35;95784.88;;;6.84;100.00
15229;BME280;7717;47.792;12.076;2023-04-21T03:08:01;95791.66;;;6.93;100.00
15229;BME280;7717;47.792;12.076;2023-04-21T03:10:26;95787.41;;;6.89;100.00
15229;BME280;7717;47.792;12.076;2023-04-21T03:12:51;95795.03;;;6.91;100.00
15229;BME280;7717;47.792;12.076;2023-04-21T03:15:18;95794.19;;;6.90;100.00
15229;BME280;7717;47.792;12.076;2023-04-21T03:17:43;95792.50;;;6.92;100.00
15229;BME280;7717;47.792;12.076;2023-04-21T03:20:09;95795.06;;;6.97;100.00
15229;BME280;7717;47.792;12.076;2023-04-21T03:22:36;95798.47;;;6.96;100.00
15229;BME280;7717;47.792;12.076;2023-04-21T03:25:02;95781.47;;;6.85;100.00
15229;BME280;7717;47.792;12.076;2023-04-21T03:27:29;95800.13;;;6.91;100.00
15229;BME280;7717;47.792;12.076;2023-04-21T03:29:54;95792.50;;;6.81;100.00
15229;BME280;7717;47.792;12.076;2023-04-21T03:32:19;95791.63;;;6.85;100.00
15229;BME280;7717;47.792;12.076;2023-04-21T03:34:45;95791.66;;;6.90;100.00
15229;BME280;7717;47.792;12.076;2023-04-21T03:37:10;95787.41;;;6.81;100.00
15229;BME280;7717;47.792;12.076;2023-04-21T03:39:35;95793.28;;;6.73;100.00
15229;BME280;7717;47.792;12.076;2023-04-21T03:42:01;95791.59;;;6.73;100.00
15229;BME280;7717;47.792;12.076;2023-04-21T03:44:26;95794.97;;;6.69;100.00
15229;BME280;7717;47.792;12.076;2023-04-21T03:46:53;95783.88;;;6.58;100.00
15229;BME280;7717;47.792;12.076;2023-04-21T03:49:19;95789.81;;;6.54;100.00
15229;BME280;7717;47.792;12.076;2023-04-21T03:51:44;95791.50;;;6.45;100.00
15229;BME280;7717;47.792;12.076;2023-04-21T03:54:10;95789.75;;;6.41;100.00
15229;BME280;7717;47.792;12.076;2023-04-21T03:56:35;95789.78;;;6.46;100.00
15229;BME280;7717;47.792;12.076;2023-04-21T03:59:01;95787.25;;;6.51;100.00
15229;BME280;7717;47.792;12.076;2023-04-21T04:01:26;95787.28;;;6.54;100.00
15229;BME280;7717;47.792;12.076;2023-04-21T04:03:52;95781.31;;;6.44;100.00
15229;BME280;7717;47.792;12.076;2023-04-21T04:06:17;95789.81;;;6.54;100.00
15229;BME280;7717;47.792;12.076;2023-04-21T04:08:43;95781.31;;;6.50;100.00
15229;BME280;7717;47.792;12.076;2023-04-21T04:11:08;95782.19;;;6.49;100.00
15229;BME280;7717;47.792;12.076;2023-04-21T04:13:34;95781.34;;;6.61;100.00
15229;BME280;7717;47.792;12.076;2023-04-21T04:15:59;95781.34;;;6.55;100.00
15229;BME280;7717;47.792;12.076;2023-04-21T04:18:25;95783.91;;;6.64;100.00
15229;BME280;7717;47.792;12.076;2023-04-21T04:20:50;95770.31;;;6.49;100.00
15229;BME280;7717;47.792;12.076;2023-04-21T04:23:16;95769.44;;;6.44;100.00
15229;BME280;7717;47.792;12.076;2023-04-21T04:25:41;95769.47;;;6.51;100.00
15229;BME280;7717;47.792;12.076;2023-04-21T04:28:07;95776.22;;;6.45;100.00
15229;BME280;7717;47.792;12.076;2023-04-21T04:30:33;95770.25;;;6.42;100.00
15229;BME280;7717;47.792;12.076;2023-04-21T04:33:00;95760.94;;;6.39;100.00
15229;BME280;7717;47.792;12.076;2023-04-21T04:35:25;95766.06;;;6.55;100.00
15229;BME280;7717;47.792;12.076;2023-04-21T04:37:51;95767.81;;;6.62;100.00
15229;BME280;7717;47.792;12.076;2023-04-21T04:40:16;95775.47;;;6.65;100.00
15229;BME280;7717;47.792;12.076;2023-04-21T04:42:42;95767.03;;;6.75;100.00
15229;BME280;7717;47.792;12.076;2023-04-21T04:45:09;95772.13;;;6.74;100.00
15229;BME280;7717;47.792;12.076;2023-04-21T04:47:36;95761.94;;;6.72;100.00
15229;BME280;7717;47.792;12.076;2023-04-21T04:50:02;95761.09;;;6.84;100.00
15229;BME280;7717;47.792;12.076;2023-04-21T04:52:27;95750.97;;;6.95;100.00
15229;BME280;7717;47.792;12.076;2023-04-21T04:54:53;95761.97;;;6.84;100.00
15229;BME280;7717;47.792;12.076;2023-04-21T04:57:18;95760.22;;;6.70;100.00
15229;BME280;7717;47.792;12.076;2023-04-21T04:59:43;95759.44;;;6.88;100.00
15229;BME280;7717;47.792;12.076;2023-04-21T05:02:09;95761.16;;;7.04;100.00
15229;BME280;7717;47.792;12.076;2023-04-21T05:04:35;95745.88;;;6.98;100.00
15229;BME280;7717;47.792;12.076;2023-04-21T05:07:00;95759.50;;;7.18;100.00
15229;BME280;7717;47.792;12.076;2023-04-21T05:09:26;95756.13;;;7.29;100.00
15229;BME280;7717;47.792;12.076;2023-04-21T05:11:51;95742.50;;;6.99;100.00
15229;BME280;7717;47.792;12.076;2023-04-21T05:14:17;95761.22;;;7.29;100.00
15229;BME280;7717;47.792;12.076;2023-04-21T05:16:42;95759.53;;;7.46;100.00
15229;BME280;7717;47.792;12.076;2023-04-21T05:19:08;95760.38;;;7.53;100.00
15229;BME280;7717;47.792;12.076;2023-04-21T05:21:33;95760.38;;;7.64;100.00
15229;BME280;7717;47.792;12.076;2023-04-21T05:23:59;95764.63;;;7.83;100.00
15229;BME280;7717;47.792;12.076;2023-04-21T05:26:26;95762.06;;;7.92;100.00
15229;BME280;7717;47.792;12.076;2023-04-21T05:28:53;95766.31;;;7.81;100.00
15229;BME280;7717;47.792;12.076;2023-04-21T05:31:18;95766.25;;;8.31;100.00
15229;BME280;7717;47.792;12.076;2023-04-21T05:33:44;95764.50;;;8.54;100.00
15229;BME280;7717;47.792;12.076;2023-04-21T05:36:10;95766.19;;;8.60;100.00
15229;BME280;7717;47.792;12.076;2023-04-21T05:38:35;95759.41;;;8.54;100.00
15229;BME280;7717;47.792;12.076;2023-04-21T05:41:02;95769.53;;;8.74;100.00
15229;BME280;7717;47.792;12.076;2023-04-21T05:43:27;95769.34;;;9.13;100.00
15229;BME280;7717;47.792;12.076;2023-04-21T05:45:53;95759.91;;;9.26;100.00
15229;BME280;7717;47.792;12.076;2023-04-21T05:48:19;95763.03;;;9.66;100.00
15229;BME280;7717;47.792;12.076;2023-04-21T05:50:44;95767.06;;;9.89;100.00
15229;BME280;7717;47.792;12.076;2023-04-21T05:53:10;95765.44;;;9.85;100.00
15229;BME280;7717;47.792;12.076;2023-04-21T05:55:35;95766.19;;;9.93;100.00
15229;BME280;7717;47.792;12.076;2023-04-21T05:58:01;95760.91;;;10.13;100.00
15229;BME280;7717;47.792;12.076;2023-04-21T06:00:26;95760.16;;;10.03;100.00
15229;BME280;7717;47.792;12.076;2023-04-21T06:02:52;95767.66;;;10.17;100.00
15229;BME280;7717;47.792;12.076;2023-04-21T06:05:17;95759.41;;;9.89;100.00
15229;BME280;7717;47.792;12.076;2023-04-21T06:07:43;95761.41;;;9.51;100.00
15229;BME280;7717;47.792;12.076;2023-04-21T06:10:11;95746.41;;;10.14;100.00
15229;BME280;7717;47.792;12.076;2023-04-21T06:12:36;95750.22;;;10.58;100.00
15229;BME280;7717;47.792;12.076;2023-04-21T06:15:02;95745.50;;;10.94;100.00
15229;BME280;7717;47.792;12.076;2023-04-21T06:17:27;95748.66;;;11.14;100.00
15229;BME280;7717;47.792;12.076;2023-04-21T06:19:53;95743.06;;;11.45;100.00
15229;BME280;7717;47.792;12.076;2023-04-21T06:22:20;95748.66;;;11.14;100.00
15229;BME280;7717;47.792;12.076;2023-04-21T06:24:45;95744.13;;;11.33;100.00
15229;BME280;7717;47.792;12.076;2023-04-21T06:27:11;95738.97;;;11.35;100.00
15229;BME280;7717;47.792;12.076;2023-04-21T06:29:37;95733.53;;;11.55;100.00
15229;BME280;7717;47.792;12.076;2023-04-21T06:32:03;95735.16;;;11.59;100.00
15229;BME280;7717;47.792;12.076;2023-04-21T06:34:29;95741.63;;;11.83;100.00
15229;BME280;7717;47.792;12.076;2023-04-21T06:36:54;95733.38;;;11.66;100.00
15229;BME280;7717;47.792;12.076;2023-04-21T06:39:20;95734.53;;;11.46;100.00
15229;BME280;7717;47.792;12.076;2023-04-21T06:41:45;95723.38;;;11.50;100.00
15229;BME280;7717;47.792;12.076;2023-04-21T06:44:10;95746.72;;;11.86;100.00
15229;BME280;7717;47.792;12.076;2023-04-21T06:46:39;95737.72;;;12.14;100.00
15229;BME280;7717;47.792;12.076;2023-04-21T06:49:06;95742.81;;;12.15;100.00
15229;BME280;7717;47.792;12.076;2023-04-21T06:51:31;95743.66;;;12.16;100.00
15229;BME280;7717;47.792;12.076;2023-04-21T06:53:57;95746.28;;;11.60;100.00
15229;BME280;7717;47.792;12.076;2023-04-21T06:56:22;95735.84;;;11.72;100.00
15229;BME280;7717;47.792;12.076;2023-04-21T06:58:47;95736.59;;;11.77;100.00
15229;BME280;7717;47.792;12.076;2023-04-21T07:01:13;95734.03;;;11.77;100.00
15229;BME280;7717;47.792;12.076;2023-04-21T07:03:38;95722.13;;;12.24;100.00
15229;BME280;7717;47.792;12.076;2023-04-21T07:06:04;95722.00;;;12.31;100.00
15229;BME280;7717;47.792;12.076;2023-04-21T07:08:29;95728.72;;;12.38;100.00
15229;BME280;7717;47.792;12.076;2023-04-21T07:10:55;95732.75;;;12.50;100.00
15229;BME280;7717;47.792;12.076;2023-04-21T07:13:20;95720.94;;;12.85;100.00
15229;BME280;7717;47.792;12.076;2023-04-21T07:15:46;95721.28;;;12.68;100.00
15229;BME280;7717;47.792;12.076;2023-04-21T07:18:11;95719.06;;;12.93;100.00
15229;BME280;7717;47.792;12.076;2023-04-21T07:20:36;95714.56;;;13.42;100.00
15229;BME280;7717;47.792;12.076;2023-04-21T07:23:02;95712.63;;;13.12;100.00
15229;BME280;7717;47.792;12.076;2023-04-21T07:25:27;95719.19;;;12.87;100.00
15229;BME280;7717;47.792;12.076;2023-04-21T07:27:52;95728.28;;;13.02;100.00
15229;BME280;7717;47.792;12.076;2023-04-21T07:30:18;95725.75;;;12.58;100.00
15229;BME280;7717;47.792;12.076;2023-04-21T07:32:43;95724.03;;;13.01;100.00
15229;BME280;7717;47.792;12.076;2023-04-21T07:35:10;95714.06;;;12.43;100.00
15229;BME280;7717;47.792;12.076;2023-04-21T07:37:35;95721.38;;;13.44;100.00
15229;BME280;7717;47.792;12.076;2023-04-21T07:40:01;95712.25;;;13.67;100.00
15229;BME280;7717;47.792;12.076;2023-04-21T07:42:26;95714.09;;;13.96;100.00
15229;BME280;7717;47.792;12.076;2023-04-21T07:44:52;95716.00;;;14.54;100.00
15229;BME280;7717;47.792;12.076;2023-04-21T07:47:17;95716.59;;;14.32;100.00
15229;BME280;7717;47.792;12.076;2023-04-21T07:49:43;95713.28;;;13.22;100.00
15229;BME280;7717;47.792;12.076;2023-04-21T07:52:08;95723.97;;;14.13;100.00
15229;BME280;7717;47.792;12.076;2023-04-21T07:54:33;95714.56;;;14.75;100.00
15229;BME280;7717;47.792;12.076;2023-04-21T07:56:59;95723.34;;;14.36;100.00
15229;BME280;7717;47.792;12.076;2023-04-21T07:59:26;95722.78;;;14.25;100.00
15229;BME280;7717;47.792;12.076;2023-04-21T08:01:52;95713.78;;;14.73;100.00
15229;BME280;7717;47.792;12.076;2023-04-21T08:04:17;95732.91;;;14.64;100.00
15229;BME280;7717;47.792;12.076;2023-04-21T08:06:42;95724.09;;;15.03;100.00
15229;BME280;7717;47.792;12.076;2023-04-21T08:09:08;95725.69;;;14.46;100.00
15229;BME280;7717;47.792;12.076;2023-04-21T08:11:33;95730.53;;;13.91;100.00
15229;BME280;7717;47.792;12.076;2023-04-21T08:13:58;95721.44;;;14.12;100.00
15229;BME280;7717;47.792;12.076;2023-04-21T08:16:24;95709.34;;;13.81;100.00
15229;BME280;7717;47.792;12.076;2023-04-21T08:18:49;95729.88;;;14.48;100.00
15229;BME280;7717;47.792;12.076;2023-04-21T08:21:15;95734.38;;;14.42;100.00
15229;BME280;7717;47.792;12.076;2023-04-21T08:23:40;95734.97;;;14.18;100.00
15229;BME280;7717;47.792;12.076;2023-04-21T08:26:06;95713.06;;;14.36;100.00
15229;BME280;7717;47.792;12.076;2023-04-21T08:28:31;95723.25;;;15.02;100.00
15229;BME280;7717;47.792;12.076;2023-04-21T08:30:56;95717.03;;;14.80;100.00
15229;BME280;7717;47.792;12.076;2023-04-21T08:33:22;95727.00;;;15.48;100.00
15229;BME280;7717;47.792;12.076;2023-04-21T08:35:47;95720.47;;;15.65;100.00
15229;BME280;7717;47.792;12.076;2023-04-21T08:38:13;95726.91;;;16.55;100.00
15229;BME280;7717;47.792;12.076;2023-04-21T08:40:38;95723.03;;;16.18;100.00
15229;BME280;7717;47.792;12.076;2023-04-21T08:43:04;95728.91;;;15.70;100.00
15229;BME280;7717;47.792;12.076;2023-04-21T08:45:31;95746.81;;;14.90;100.00
15229;BME280;7717;47.792;12.076;2023-04-21T08:47:58;95737.47;;;15.99;100.00
15229;BME280;7717;47.792;12.076;2023-04-21T08:50:27;95736.59;;;15.98;100.00
15229;BME280;7717;47.792;12.076;2023-04-21T08:52:53;95734.47;;;16.11;100.00
15229;BME280;7717;47.792;12.076;2023-04-21T08:55:19;95730.91;;;15.89;100.00
15229;BME280;7717;47.792;12.076;2023-04-21T08:57:49;95732.22;;;16.02;100.00
15229;BME280;7717;47.792;12.076;2023-04-21T09:00:14;95732.47;;;15.66;100.00
15229;BME280;7717;47.792;12.076;2023-04-21T09:02:59;95724.50;;;15.74;100.00
15229;BME280;7717;47.792;12.076;2023-04-21T09:05:26;95724.81;;;16.42;100.00
15229;BME280;7717;47.792;12.076;2023-04-21T09:08:06;95675.53;;;16.71;98.60
15229;BME280;7717;47.792;12.076;2023-04-21T09:10:33;95700.53;;;16.47;98.84
15229;BME280;7717;47.792;12.076;2023-04-21T09:13:05;95686.34;;;17.05;97.85
15229;BME280;7717;47.792;12.076;2023-04-21T09:15:37;95720.72;;;17.31;100.00
15229;BME280;7717;47.792;12.076;2023-04-21T09:18:03;95715.00;;;17.89;100.00
15229;BME280;7717;47.792;12.076;2023-04-21T09:20:28;95718.66;;;18.05;100.00
15229;BME280;7717;47.792;12.076;2023-04-21T09:22:53;95694.25;;;19.65;97.43
15229;BME280;7717;47.792;12.076;2023-04-21T09:25:19;95697.72;;;20.18;97.80
15229;BME280;7717;47.792;12.076;2023-04-21T09:27:45;95710.59;;;19.67;98.28
15229;BME280;7717;47.792;12.076;2023-04-21T09:30:12;95691.28;;;19.72;92.87
15229;BME280;7717;47.792;12.076;2023-04-21T09:32:39;95718.47;;;21.51;94.07
15229;BME280;7717;47.792;12.076;2023-04-21T09:35:08;95719.13;;;21.55;92.49
15229;BME280;7717;47.792;12.076;2023-04-21T09:37:34;95726.69;;;20.27;93.08
15229;BME280;7717;47.792;12.076;2023-04-21T09:40:00;95745.09;;;20.23;95.02
15229;BME280;7717;47.792;12.076;2023-04-21T09:42:31;95692.66;;;21.31;93.72
15229;BME280;7717;47.792;12.076;2023-04-21T09:44:56;95692.34;;;21.99;87.99
15229;BME280;7717;47.792;12.076;2023-04-21T09:47:22;95721.97;;;21.34;89.89
15229;BME280;7717;47.792;12.076;2023-04-21T09:49:51;95669.81;;;21.36;86.66
15229;BME280;7717;47.792;12.076;2023-04-21T09:52:18;95706.63;;;21.62;88.03
15229;BME280;7717;47.792;12.076;2023-04-21T09:54:50;95716.88;;;20.32;90.72
15229;BME280;7717;47.792;12.076;2023-04-21T09:57:24;95700.16;;;20.03;91.57
15229;BME280;7717;47.792;12.076;2023-04-21T09:59:57;95708.84;;;20.37;94.75
15229;BME280;7717;47.792;12.076;2023-04-21T10:02:25;95708.91;;;20.02;97.03
15229;BME280;7717;47.792;12.076;2023-04-21T10:04:54;95713.38;;;19.45;97.17
15229;BME280;7717;47.792;12.076;2023-04-21T10:07:19;95709.25;;;19.58;90.57
15229;BME280;7717;47.792;12.076;2023-04-21T10:09:51;95694.63;;;19.74;89.70
15229;BME280;7717;47.792;12.076;2023-04-21T10:12:19;95725.38;;;19.09;93.98
15229;BME280;7717;47.792;12.076;2023-04-21T10:14:49;95707.31;;;17.65;89.12
15229;BME280;7717;47.792;12.076;2023-04-21T10:17:15;95727.31;;;18.45;94.87
15229;BME280;7717;47.792;12.076;2023-04-21T10:19:49;95707.19;;;18.71;93.77
15229;BME280;7717;47.792;12.076;2023-04-21T10:22:25;95652.53;;;19.14;87.60
15229;BME280;7717;47.792;12.076;2023-04-21T10:24:54;95689.53;;;19.36;90.36
15229;BME280;7717;47.792;12.076;2023-04-21T10:27:36;95639.00;;;19.61;85.45
15229;BME280;7717;47.792;12.076;2023-04-21T10:30:20;95598.44;;;19.77;81.07
15229;BME280;7717;47.792;12.076;2023-04-21T10:32:46;95710.66;;;20.19;93.05
15229;BME280;7717;47.792;12.076;2023-04-21T10:35:14;95675.03;;;22.13;87.09
15229;BME280;7717;47.792;12.076;2023-04-21T10:37:41;95709.94;;;22.69;89.51
15229;BME280;7717;47.792;12.076;2023-04-21T10:42:55;95727.84;;;21.70;89.37
15229;BME280;7717;47.792;12.076;2023-04-21T10:45:24;95630.06;;;20.53;80.35
15229;BME280;7717;47.792;12.076;2023-04-21T10:47:51;95674.56;;;22.65;85.35
15229;BME280;7717;47.792;12.076;2023-04-21T10:50:19;95639.88;;;23.33;82.71
15229;BME280;7717;47.792;12.076;2023-04-21T10:53:10;95628.28;;;22.09;80.29
15229;BME280;7717;47.792;12.076;2023-04-21T10:55:37;95590.06;;;23.36;77.32
15229;BME280;7717;47.792;12.076;2023-04-21T10:58:04;95632.34;;;24.48;81.51
15229;BME280;7717;47.792;12.076;2023-04-21T11:00:31;95685.44;;;23.42;84.98
15229;BME280;7717;47.792;12.076;2023-04-21T11:03:04;95529.06;;;22.13;72.94
15229;BME280;7717;47.792;12.076;2023-04-21T11:05:48;95475.31;;;24.73;71.41
15229;BME280;7717;47.792;12.076;2023-04-21T11:08:14;95584.25;;;23.46;77.58
15229;BME280;7717;47.792;12.076;2023-04-21T11:10:45;95704.19;;;22.50;84.39
15229;BME280;7717;47.792;12.076;2023-04-21T11:13:14;95581.91;;;23.94;76.88
15229;BME280;7717;47.792;12.076;2023-04-21T11:15:40;95690.09;;;24.32;84.72
15229;BME280;7717;47.792;12.076;2023-04-21T11:18:06;95615.19;;;25.79;79.89
15229;BME280;7717;47.792;12.076;2023-04-21T11:20:33;95589.09;;;25.77;77.17
15229;BME280;7717;47.792;12.076;2023-04-21T11:22:58;95671.19;;;27.17;83.16
15229;BME280;7717;47.792;12.076;2023-04-21T11:25:24;95602.78;;;26.39;78.01
15229;BME280;7717;47.792;12.076;2023-04-21T11:27:53;95501.91;;;25.15;69.56
15229;BME280;7717;47.792;12.076;2023-04-21T11:30:19;95577.75;;;24.17;74.84
15229;BME280;7717;47.792;12.076;2023-04-21T11:32:45;95572.69;;;27.00;75.60
15229;BME280;7717;47.792;12.076;2023-04-21T11:35:11;95642.44;;;26.81;79.96
15229;BME280;7717;47.792;12.076;2023-04-21T11:37:36;95569.84;;;26.80;74.52
15229;BME280;7717;47.792;12.076;2023-04-21T11:40:02;95554.84;;;26.26;72.78
15229;BME280;7717;47.792;12.076;2023-04-21T11:42:30;95651.97;;;25.42;78.93
15229;BME280;7717;47.792;12.076;2023-04-21T11:44:56;95509.19;;;22.53;69.36
15229;BME280;7717;47.792;12.076;2023-04-21T11:47:25;95546.53;;;24.53;71.76
15229;BME280;7717;47.792;12.076;2023-04-21T11:49:59;95567.47;;;25.98;72.35
15229;BME280;7717;47.792;12.076;2023-04-21T11:54:55;95536.97;;;26.31;71.38
15229;BME280;7717;47.792;12.076;2023-04-21T11:57:21;95587.16;;;23.94;73.55
15229;BME280;7717;47.792;12.076;2023-04-21T11:59:47;95528.44;;;23.60;69.94
15229;BME280;7717;47.792;12.076;2023-04-21T12:02:20;95468.94;;;24.89;67.42
15229;BME280;7717;47.792;12.076;2023-04-21T12:05:05;95442.13;;;25.33;65.66
15229;BME280;7717;47.792;12.076;2023-04-21T12:07:32;95508.63;;;24.08;69.42
15229;BME280;7717;47.792;12.076;2023-04-21T12:09:59;95587.22;;;22.71;73.26
15229;BME280;7717;47.792;12.076;2023-04-21T12:12:25;95612.28;;;24.98;75.84
15229;BME280;7717;47.792;12.076;2023-04-21T12:14:51;95511.44;;;26.33;70.52
15229;BME280;7717;47.792;12.076;2023-04-21T12:17:17;95542.22;;;28.25;72.81
15229;BME280;7717;47.792;12.076;2023-04-21T12:19:43;95353.16;;;26.76;61.15
15229;BME280;7717;47.792;12.076;2023-04-21T12:24:35;95423.34;;;28.61;65.06
15229;BME280;7717;47.792;12.076;2023-04-21T12:27:01;95421.84;;;27.35;64.58
15229;BME280;7717;47.792;12.076;2023-04-21T12:29:27;95562.88;;;27.13;71.62
15229;BME280;7717;47.792;12.076;2023-04-21T12:31:52;95427.34;;;28.94;64.70
15229;BME280;7717;47.792;12.076;2023-04-21T12:34:18;95479.84;;;29.93;67.91
15229;BME280;7717;47.792;12.076;2023-04-21T12:36:46;95407.97;;;30.37;63.36
15229;BME280;7717;47.792;12.076;2023-04-21T12:39:12;95485.38;;;28.53;67.80
15229;BME280;7717;47.792;12.076;2023-04-21T12:41:38;95560.09;;;26.37;71.43
15229;BME280;7717;47.792;12.076;2023-04-21T12:44:03;95589.88;;;26.92;73.77
15229;BME280;7717;47.792;12.076;2023-04-21T12:46:29;95610.25;;;27.23;74.93
15229;BME280;7717;47.792;12.076;2023-04-21T12:48:54;95517.38;;;26.35;68.32
15229;BME280;7717;47.792;12.076;2023-04-21T12:51:20;95594.25;;;24.43;73.82
15229;BME280;7717;47.792;12.076;2023-04-21T12:53:45;95567.22;;;25.30;70.81
15229;BME280;7717;47.792;12.076;2023-04-21T12:56:11;95550.91;;;26.20;71.53
15229;BME280;7717;47.792;12.076;2023-04-21T12:58:36;95454.88;;;25.72;64.32
15229;BME280;7717;47.792;12.076;2023-04-21T13:01:01;95489.44;;;24.95;65.61